sensor_id;sensor_type;location;lat;lon;timestamp;P1;durP1;ratioP1;P2;durP2;ratioP2
8572;SDS011;4324;42.012;24.872;2022-12-18T00:01:58;25.60;;;19.17;;
8572;SDS011;4324;42.012;24.872;2022-12-18T00:04:26;23.97;;;17.87;;
8572;SDS011;4324;42.012;24.872;2022-12-18T00:06:54;21.33;;;15.00;;
8572;SDS011;4324;42.012;24.872;2022-12-18T00:09:21;20.13;;;14.83;;
8572;SDS011;4324;42.012;24.872;2022-12-18T00:11:48;20.27;;;16.07;;
8572;SDS011;4324;42.012;24.872;2022-12-18T00:14:16;20.97;;;16.07;;
8572;SDS011;4324;42.012;24.872;2022-12-18T00:16:44;18.97;;;14.70;;
8572;SDS011;4324;42.012;24.872;2022-12-18T00:19:11;18.77;;;15.63;;
8572;SDS011;4324;42.012;24.872;2022-12-18T00:21:39;22.53;;;16.07;;
8572;SDS011;4324;42.012;24.872;2022-12-18T00:24:06;20.37;;;15.47;;
8572;SDS011;4324;42.012;24.872;2022-12-18T00:26:34;21.40;;;16.07;;
8572;SDS011;4324;42.012;24.872;2022-12-18T00:29:03;24.80;;;18.23;;
8572;SDS011;4324;42.012;24.872;2022-12-18T00:31:33;20.87;;;15.50;;
8572;SDS011;4324;42.012;24.872;2022-12-18T00:34:00;18.60;;;13.40;;
8572;SDS011;4324;42.012;24.872;2022-12-18T00:36:28;17.17;;;13.07;;
8572;SDS011;4324;42.012;24.872;2022-12-18T00:38:56;11.27;;;10.07;;
8572;SDS011;4324;42.012;24.872;2022-12-18T00:41:24;12.10;;;8.37;;
8572;SDS011;4324;42.012;24.872;2022-12-18T00:44:10;10.10;;;8.77;;
8572;SDS011;4324;42.012;24.872;2022-12-18T00:46:40;10.63;;;8.00;;
8572;SDS011;4324;42.012;24.872;2022-12-18T00:49:07;9.57;;;7.53;;
8572;SDS011;4324;42.012;24.872;2022-12-18T00:51:34;8.33;;;6.33;;
8572;SDS011;4324;42.012;24.872;2022-12-18T00:54:01;8.83;;;7.27;;
8572;SDS011;4324;42.012;24.872;2022-12-18T00:56:28;9.43;;;7.57;;
8572;SDS011;4324;42.012;24.872;2022-12-18T00:58:55;12.57;;;9.43;;
8572;SDS011;4324;42.012;24.872;2022-12-18T01:01:22;12.50;;;9.83;;
8572;SDS011;4324;42.012;24.872;2022-12-18T01:03:50;15.43;;;13.23;;
8572;SDS011;4324;42.012;24.872;2022-12-18T01:06:18;17.43;;;12.33;;
8572;SDS011;4324;42.012;24.872;2022-12-18T01:08:45;16.20;;;13.37;;
8572;SDS011;4324;42.012;24.872;2022-12-18T01:11:12;17.20;;;11.27;;
8572;SDS011;4324;42.012;24.872;2022-12-18T01:13:41;14.10;;;11.77;;
8572;SDS011;4324;42.012;24.872;2022-12-18T01:16:10;16.17;;;12.13;;
8572;SDS011;4324;42.012;24.872;2022-12-18T01:18:38;16.27;;;12.40;;
8572;SDS011;4324;42.012;24.872;2022-12-18T01:21:07;15.07;;;12.27;;
8572;SDS011;4324;42.012;24.872;2022-12-18T01:23:35;14.67;;;13.03;;
8572;SDS011;4324;42.012;24.872;2022-12-18T01:26:05;14.20;;;11.00;;
8572;SDS011;4324;42.012;24.872;2022-12-18T01:28:32;10.27;;;9.13;;
8572;SDS011;4324;42.012;24.872;2022-12-18T01:31:08;10.50;;;7.07;;
8572;SDS011;4324;42.012;24.872;2022-12-18T01:33:37;7.93;;;5.97;;
8572;SDS011;4324;42.012;24.872;2022-12-18T01:36:04;10.10;;;5.80;;
8572;SDS011;4324;42.012;24.872;2022-12-18T01:38:32;8.73;;;6.80;;
8572;SDS011;4324;42.012;24.872;2022-12-18T01:40:59;7.43;;;6.03;;
8572;SDS011;4324;42.012;24.872;2022-12-18T01:43:43;17.03;;;12.03;;
8572;SDS011;4324;42.012;24.872;2022-12-18T01:46:12;23.30;;;15.67;;
8572;SDS011;4324;42.012;24.872;2022-12-18T01:48:39;28.17;;;17.13;;
8572;SDS011;4324;42.012;24.872;2022-12-18T01:51:08;60.63;;;30.70;;
8572;SDS011;4324;42.012;24.872;2022-12-18T01:53:38;83.70;;;38.07;;
8572;SDS011;4324;42.012;24.872;2022-12-18T01:56:07;67.93;;;36.97;;
8572;SDS011;4324;42.012;24.872;2022-12-18T01:58:37;64.17;;;37.07;;
8572;SDS011;4324;42.012;24.872;2022-12-18T02:01:10;64.83;;;35.50;;
8572;SDS011;4324;42.012;24.872;2022-12-18T02:03:37;65.43;;;35.00;;
8572;SDS011;4324;42.012;24.872;2022-12-18T02:06:08;52.93;;;32.13;;
8572;SDS011;4324;42.012;24.872;2022-12-18T02:08:42;61.17;;;35.73;;
8572;SDS011;4324;42.012;24.872;2022-12-18T02:11:18;54.43;;;33.70;;
8572;SDS011;4324;42.012;24.872;2022-12-18T02:13:57;55.63;;;34.47;;
8572;SDS011;4324;42.012;24.872;2022-12-18T02:16:32;52.50;;;33.60;;
8572;SDS011;4324;42.012;24.872;2022-12-18T02:19:06;47.93;;;30.37;;
8572;SDS011;4324;42.012;24.872;2022-12-18T02:21:44;44.10;;;28.60;;
8572;SDS011;4324;42.012;24.872;2022-12-18T02:24:24;42.00;;;28.60;;
8572;SDS011;4324;42.012;24.872;2022-12-18T02:26:58;24.37;;;17.33;;
8572;SDS011;4324;42.012;24.872;2022-12-18T02:29:29;26.80;;;17.87;;
8572;SDS011;4324;42.012;24.872;2022-12-18T02:31:59;23.20;;;16.20;;
8572;SDS011;4324;42.012;24.872;2022-12-18T02:34:29;14.27;;;10.00;;
8572;SDS011;4324;42.012;24.872;2022-12-18T02:36:59;11.20;;;8.33;;
8572;SDS011;4324;42.012;24.872;2022-12-18T02:39:30;11.13;;;7.00;;
8572;SDS011;4324;42.012;24.872;2022-12-18T02:42:00;16.40;;;9.23;;
8572;SDS011;4324;42.012;24.872;2022-12-18T02:44:33;10.03;;;7.20;;
8572;SDS011;4324;42.012;24.872;2022-12-18T02:47:00;7.77;;;6.00;;
8572;SDS011;4324;42.012;24.872;2022-12-18T02:49:30;7.43;;;5.00;;
8572;SDS011;4324;42.012;24.872;2022-12-18T02:52:05;7.60;;;4.93;;
8572;SDS011;4324;42.012;24.872;2022-12-18T02:54:45;8.73;;;4.30;;
8572;SDS011;4324;42.012;24.872;2022-12-18T02:57:24;6.80;;;3.97;;
8572;SDS011;4324;42.012;24.872;2022-12-18T03:00:01;7.60;;;4.00;;
8572;SDS011;4324;42.012;24.872;2022-12-18T03:02:33;8.93;;;4.67;;
8572;SDS011;4324;42.012;24.872;2022-12-18T03:05:07;5.97;;;3.97;;
8572;SDS011;4324;42.012;24.872;2022-12-18T03:07:40;6.67;;;3.83;;
8572;SDS011;4324;42.012;24.872;2022-12-18T03:10:11;4.33;;;3.93;;
8572;SDS011;4324;42.012;24.872;2022-12-18T03:12:43;5.57;;;3.80;;
8572;SDS011;4324;42.012;24.872;2022-12-18T03:15:15;4.87;;;3.90;;
8572;SDS011;4324;42.012;24.872;2022-12-18T03:17:46;17.90;;;9.33;;
8572;SDS011;4324;42.012;24.872;2022-12-18T03:20:19;7.27;;;4.93;;
8572;SDS011;4324;42.012;24.872;2022-12-18T03:22:49;11.07;;;4.80;;
8572;SDS011;4324;42.012;24.872;2022-12-18T03:25:20;10.17;;;4.60;;
8572;SDS011;4324;42.012;24.872;2022-12-18T03:27:51;5.33;;;3.87;;
8572;SDS011;4324;42.012;24.872;2022-12-18T03:30:22;6.97;;;4.10;;
8572;SDS011;4324;42.012;24.872;2022-12-18T03:32:52;7.10;;;4.17;;
8572;SDS011;4324;42.012;24.872;2022-12-18T03:35:26;6.20;;;4.73;;
8572;SDS011;4324;42.012;24.872;2022-12-18T03:38:00;7.80;;;4.57;;
8572;SDS011;4324;42.012;24.872;2022-12-18T03:40:29;9.33;;;4.87;;
8572;SDS011;4324;42.012;24.872;2022-12-18T03:43:03;5.57;;;3.90;;
8572;SDS011;4324;42.012;24.872;2022-12-18T03:45:37;8.03;;;4.40;;
8572;SDS011;4324;42.012;24.872;2022-12-18T03:48:10;4.30;;;3.80;;
8572;SDS011;4324;42.012;24.872;2022-12-18T03:50:46;6.57;;;3.83;;
8572;SDS011;4324;42.012;24.872;2022-12-18T03:53:22;6.77;;;4.03;;
8572;SDS011;4324;42.012;24.872;2022-12-18T03:55:53;6.33;;;4.07;;
8572;SDS011;4324;42.012;24.872;2022-12-18T03:58:24;8.43;;;4.10;;
8572;SDS011;4324;42.012;24.872;2022-12-18T04:00:53;6.40;;;3.87;;
8572;SDS011;4324;42.012;24.872;2022-12-18T04:03:23;4.90;;;3.77;;
8572;SDS011;4324;42.012;24.872;2022-12-18T04:05:52;6.97;;;3.93;;
8572;SDS011;4324;42.012;24.872;2022-12-18T04:08:21;4.70;;;3.73;;
8572;SDS011;4324;42.012;24.872;2022-12-18T04:10:50;5.60;;;3.80;;
8572;SDS011;4324;42.012;24.872;2022-12-18T04:13:21;7.00;;;3.83;;
8572;SDS011;4324;42.012;24.872;2022-12-18T04:15:50;6.23;;;4.30;;
8572;SDS011;4324;42.012;24.872;2022-12-18T04:18:17;5.57;;;4.10;;
8572;SDS011;4324;42.012;24.872;2022-12-18T04:20:44;7.73;;;3.40;;
8572;SDS011;4324;42.012;24.872;2022-12-18T04:23:11;4.07;;;3.67;;
8572;SDS011;4324;42.012;24.872;2022-12-18T04:25:38;4.50;;;4.00;;
8572;SDS011;4324;42.012;24.872;2022-12-18T04:28:05;5.77;;;4.30;;
8572;SDS011;4324;42.012;24.872;2022-12-18T04:30:32;8.37;;;4.23;;
8572;SDS011;4324;42.012;24.872;2022-12-18T04:33:01;5.57;;;3.33;;
8572;SDS011;4324;42.012;24.872;2022-12-18T04:35:28;8.23;;;3.60;;
8572;SDS011;4324;42.012;24.872;2022-12-18T04:37:55;7.63;;;3.90;;
8572;SDS011;4324;42.012;24.872;2022-12-18T04:40:22;8.33;;;5.00;;
8572;SDS011;4324;42.012;24.872;2022-12-18T04:42:49;8.87;;;4.60;;
8572;SDS011;4324;42.012;24.872;2022-12-18T04:45:16;6.50;;;4.53;;
8572;SDS011;4324;42.012;24.872;2022-12-18T04:47:43;9.60;;;4.60;;
8572;SDS011;4324;42.012;24.872;2022-12-18T04:50:11;6.20;;;4.77;;
8572;SDS011;4324;42.012;24.872;2022-12-18T04:52:38;9.57;;;6.33;;
8572;SDS011;4324;42.012;24.872;2022-12-18T04:55:05;5.60;;;4.43;;
8572;SDS011;4324;42.012;24.872;2022-12-18T04:57:33;6.73;;;4.00;;
8572;SDS011;4324;42.012;24.872;2022-12-18T05:00:00;9.80;;;4.93;;
8572;SDS011;4324;42.012;24.872;2022-12-18T05:02:27;7.60;;;5.20;;
8572;SDS011;4324;42.012;24.872;2022-12-18T05:04:54;4.83;;;3.80;;
8572;SDS011;4324;42.012;24.872;2022-12-18T05:07:22;6.20;;;5.33;;
8572;SDS011;4324;42.012;24.872;2022-12-18T05:09:49;6.90;;;3.90;;
8572;SDS011;4324;42.012;24.872;2022-12-18T05:12:16;4.37;;;3.93;;
8572;SDS011;4324;42.012;24.872;2022-12-18T05:14:42;9.33;;;6.10;;
8572;SDS011;4324;42.012;24.872;2022-12-18T05:17:09;8.27;;;5.93;;
8572;SDS011;4324;42.012;24.872;2022-12-18T05:19:36;11.30;;;6.33;;
8572;SDS011;4324;42.012;24.872;2022-12-18T05:22:03;8.23;;;6.63;;
8572;SDS011;4324;42.012;24.872;2022-12-18T05:24:36;8.50;;;7.33;;
8572;SDS011;4324;42.012;24.872;2022-12-18T05:27:03;12.60;;;8.83;;
8572;SDS011;4324;42.012;24.872;2022-12-18T05:29:29;13.83;;;8.90;;
8572;SDS011;4324;42.012;24.872;2022-12-18T05:31:56;10.87;;;8.70;;
8572;SDS011;4324;42.012;24.872;2022-12-18T05:34:23;14.97;;;8.47;;
8572;SDS011;4324;42.012;24.872;2022-12-18T05:36:50;8.50;;;7.20;;
8572;SDS011;4324;42.012;24.872;2022-12-18T05:39:18;5.90;;;5.17;;
8572;SDS011;4324;42.012;24.872;2022-12-18T05:41:46;6.60;;;4.67;;
8572;SDS011;4324;42.012;24.872;2022-12-18T05:44:13;7.67;;;4.73;;
8572;SDS011;4324;42.012;24.872;2022-12-18T05:46:40;6.70;;;5.40;;
8572;SDS011;4324;42.012;24.872;2022-12-18T05:49:07;7.27;;;4.93;;
8572;SDS011;4324;42.012;24.872;2022-12-18T05:51:34;7.80;;;5.53;;
8572;SDS011;4324;42.012;24.872;2022-12-18T05:54:01;9.90;;;6.07;;
8572;SDS011;4324;42.012;24.872;2022-12-18T05:56:28;10.30;;;6.80;;
8572;SDS011;4324;42.012;24.872;2022-12-18T05:58:56;15.90;;;8.87;;
8572;SDS011;4324;42.012;24.872;2022-12-18T06:01:24;10.50;;;7.90;;
8572;SDS011;4324;42.012;24.872;2022-12-18T06:03:52;9.63;;;6.40;;
8572;SDS011;4324;42.012;24.872;2022-12-18T06:06:20;11.47;;;7.47;;
8572;SDS011;4324;42.012;24.872;2022-12-18T06:08:48;8.40;;;6.27;;
8572;SDS011;4324;42.012;24.872;2022-12-18T06:11:16;7.90;;;6.50;;
8572;SDS011;4324;42.012;24.872;2022-12-18T06:13:45;12.17;;;7.70;;
8572;SDS011;4324;42.012;24.872;2022-12-18T06:16:14;14.53;;;11.63;;
8572;SDS011;4324;42.012;24.872;2022-12-18T06:18:41;18.60;;;14.33;;
8572;SDS011;4324;42.012;24.872;2022-12-18T06:21:08;17.00;;;13.57;;
8572;SDS011;4324;42.012;24.872;2022-12-18T06:23:35;16.80;;;14.17;;
8572;SDS011;4324;42.012;24.872;2022-12-18T06:26:05;14.97;;;13.47;;
8572;SDS011;4324;42.012;24.872;2022-12-18T06:28:33;18.57;;;15.47;;
8572;SDS011;4324;42.012;24.872;2022-12-18T06:31:00;20.63;;;15.43;;
8572;SDS011;4324;42.012;24.872;2022-12-18T06:33:30;18.27;;;16.33;;
8572;SDS011;4324;42.012;24.872;2022-12-18T06:35:59;27.73;;;23.87;;
8572;SDS011;4324;42.012;24.872;2022-12-18T06:38:27;22.43;;;19.40;;
8572;SDS011;4324;42.012;24.872;2022-12-18T06:40:54;21.50;;;16.13;;
8572;SDS011;4324;42.012;24.872;2022-12-18T06:43:21;22.17;;;18.60;;
8572;SDS011;4324;42.012;24.872;2022-12-18T06:45:48;26.17;;;22.33;;
8572;SDS011;4324;42.012;24.872;2022-12-18T06:48:17;22.23;;;19.77;;
8572;SDS011;4324;42.012;24.872;2022-12-18T06:50:46;19.47;;;17.47;;
8572;SDS011;4324;42.012;24.872;2022-12-18T06:53:14;21.50;;;19.13;;
8572;SDS011;4324;42.012;24.872;2022-12-18T06:55:41;17.10;;;14.07;;
8572;SDS011;4324;42.012;24.872;2022-12-18T06:58:08;15.97;;;12.07;;
8572;SDS011;4324;42.012;24.872;2022-12-18T07:00:35;20.67;;;17.17;;
8572;SDS011;4324;42.012;24.872;2022-12-18T07:03:02;28.00;;;24.97;;
8572;SDS011;4324;42.012;24.872;2022-12-18T07:05:29;26.67;;;22.53;;
8572;SDS011;4324;42.012;24.872;2022-12-18T07:07:57;18.73;;;16.63;;
8572;SDS011;4324;42.012;24.872;2022-12-18T07:10:25;19.27;;;16.03;;
8572;SDS011;4324;42.012;24.872;2022-12-18T07:12:52;18.73;;;14.10;;
8572;SDS011;4324;42.012;24.872;2022-12-18T07:15:19;16.20;;;12.60;;
8572;SDS011;4324;42.012;24.872;2022-12-18T07:17:46;15.97;;;13.50;;
8572;SDS011;4324;42.012;24.872;2022-12-18T07:20:13;14.40;;;11.53;;
8572;SDS011;4324;42.012;24.872;2022-12-18T07:22:39;15.03;;;11.77;;
8572;SDS011;4324;42.012;24.872;2022-12-18T07:25:08;14.00;;;12.20;;
8572;SDS011;4324;42.012;24.872;2022-12-18T07:27:35;16.83;;;13.27;;
8572;SDS011;4324;42.012;24.872;2022-12-18T07:30:02;20.13;;;17.93;;
8572;SDS011;4324;42.012;24.872;2022-12-18T07:32:30;17.27;;;14.73;;
8572;SDS011;4324;42.012;24.872;2022-12-18T07:34:57;16.10;;;14.00;;
8572;SDS011;4324;42.012;24.872;2022-12-18T07:37:24;23.90;;;21.13;;
8572;SDS011;4324;42.012;24.872;2022-12-18T07:39:51;26.27;;;21.90;;
8572;SDS011;4324;42.012;24.872;2022-12-18T07:42:19;27.43;;;24.50;;
8572;SDS011;4324;42.012;24.872;2022-12-18T07:44:58;30.90;;;25.73;;
8572;SDS011;4324;42.012;24.872;2022-12-18T07:47:26;30.30;;;26.00;;
8572;SDS011;4324;42.012;24.872;2022-12-18T07:49:53;33.03;;;25.73;;
8572;SDS011;4324;42.012;24.872;2022-12-18T07:52:20;33.50;;;29.00;;
8572;SDS011;4324;42.012;24.872;2022-12-18T07:54:47;31.10;;;27.73;;
8572;SDS011;4324;42.012;24.872;2022-12-18T07:57:15;31.03;;;26.07;;
8572;SDS011;4324;42.012;24.872;2022-12-18T07:59:43;30.50;;;26.30;;
8572;SDS011;4324;42.012;24.872;2022-12-18T08:02:10;30.30;;;25.67;;
8572;SDS011;4324;42.012;24.872;2022-12-18T08:04:37;34.13;;;28.33;;
8572;SDS011;4324;42.012;24.872;2022-12-18T08:07:04;32.93;;;28.20;;
8572;SDS011;4324;42.012;24.872;2022-12-18T08:09:31;33.83;;;26.83;;
8572;SDS011;4324;42.012;24.872;2022-12-18T08:11:58;29.77;;;24.87;;
8572;SDS011;4324;42.012;24.872;2022-12-18T08:14:25;33.87;;;26.37;;
8572;SDS011;4324;42.012;24.872;2022-12-18T08:16:53;32.50;;;26.37;;
8572;SDS011;4324;42.012;24.872;2022-12-18T08:19:20;36.37;;;28.57;;
8572;SDS011;4324;42.012;24.872;2022-12-18T08:21:47;38.10;;;29.10;;
8572;SDS011;4324;42.012;24.872;2022-12-18T08:24:14;38.87;;;29.70;;
8572;SDS011;4324;42.012;24.872;2022-12-18T08:26:41;36.27;;;28.80;;
8572;SDS011;4324;42.012;24.872;2022-12-18T08:29:11;32.43;;;27.00;;
8572;SDS011;4324;42.012;24.872;2022-12-18T08:31:38;39.87;;;29.80;;
8572;SDS011;4324;42.012;24.872;2022-12-18T08:34:07;33.10;;;28.80;;
8572;SDS011;4324;42.012;24.872;2022-12-18T08:36:35;30.13;;;25.47;;
8572;SDS011;4324;42.012;24.872;2022-12-18T08:39:02;27.67;;;22.70;;
8572;SDS011;4324;42.012;24.872;2022-12-18T08:41:29;28.87;;;23.47;;
8572;SDS011;4324;42.012;24.872;2022-12-18T08:43:56;24.37;;;20.90;;
8572;SDS011;4324;42.012;24.872;2022-12-18T08:46:41;19.77;;;17.67;;
8572;SDS011;4324;42.012;24.872;2022-12-18T08:49:11;23.30;;;18.53;;
8572;SDS011;4324;42.012;24.872;2022-12-18T08:51:38;21.23;;;17.40;;
8572;SDS011;4324;42.012;24.872;2022-12-18T08:54:06;23.70;;;19.23;;
8572;SDS011;4324;42.012;24.872;2022-12-18T08:56:33;32.17;;;24.47;;
8572;SDS011;4324;42.012;24.872;2022-12-18T08:59:00;30.63;;;26.97;;
8572;SDS011;4324;42.012;24.872;2022-12-18T09:01:28;28.40;;;25.13;;
8572;SDS011;4324;42.012;24.872;2022-12-18T09:03:54;31.83;;;27.60;;
8572;SDS011;4324;42.012;24.872;2022-12-18T09:06:23;30.27;;;25.47;;
8572;SDS011;4324;42.012;24.872;2022-12-18T09:08:51;24.60;;;21.60;;
8572;SDS011;4324;42.012;24.872;2022-12-18T09:11:19;27.70;;;23.47;;
8572;SDS011;4324;42.012;24.872;2022-12-18T09:13:47;21.30;;;17.83;;
8572;SDS011;4324;42.012;24.872;2022-12-18T09:16:14;21.30;;;19.00;;
8572;SDS011;4324;42.012;24.872;2022-12-18T09:18:41;22.83;;;19.87;;
8572;SDS011;4324;42.012;24.872;2022-12-18T09:21:09;24.47;;;20.73;;
8572;SDS011;4324;42.012;24.872;2022-12-18T09:23:38;23.93;;;21.40;;
8572;SDS011;4324;42.012;24.872;2022-12-18T09:26:06;29.03;;;25.50;;
8572;SDS011;4324;42.012;24.872;2022-12-18T09:28:33;32.97;;;27.33;;
8572;SDS011;4324;42.012;24.872;2022-12-18T09:31:03;36.13;;;29.10;;
8572;SDS011;4324;42.012;24.872;2022-12-18T09:33:32;46.20;;;31.37;;
8572;SDS011;4324;42.012;24.872;2022-12-18T09:36:00;33.00;;;28.63;;
8572;SDS011;4324;42.012;24.872;2022-12-18T09:38:27;37.70;;;30.83;;
8572;SDS011;4324;42.012;24.872;2022-12-18T09:40:57;26.77;;;22.83;;
8572;SDS011;4324;42.012;24.872;2022-12-18T09:43:29;28.33;;;25.00;;
8572;SDS011;4324;42.012;24.872;2022-12-18T09:46:04;28.00;;;24.47;;
8572;SDS011;4324;42.012;24.872;2022-12-18T09:48:38;30.23;;;26.17;;
8572;SDS011;4324;42.012;24.872;2022-12-18T09:51:10;19.90;;;14.33;;
8572;SDS011;4324;42.012;24.872;2022-12-18T09:53:42;16.63;;;14.43;;
8572;SDS011;4324;42.012;24.872;2022-12-18T09:56:15;19.83;;;16.40;;
8572;SDS011;4324;42.012;24.872;2022-12-18T09:58:46;19.57;;;16.07;;
8572;SDS011;4324;42.012;24.872;2022-12-18T10:01:18;19.30;;;17.37;;
8572;SDS011;4324;42.012;24.872;2022-12-18T10:03:49;18.80;;;16.87;;
8572;SDS011;4324;42.012;24.872;2022-12-18T10:06:18;19.37;;;15.10;;
8572;SDS011;4324;42.012;24.872;2022-12-18T10:08:51;17.97;;;16.07;;
8572;SDS011;4324;42.012;24.872;2022-12-18T10:11:37;22.90;;;18.03;;
8572;SDS011;4324;42.012;24.872;2022-12-18T10:14:12;24.70;;;19.93;;
8572;SDS011;4324;42.012;24.872;2022-12-18T10:16:50;23.63;;;20.53;;
8572;SDS011;4324;42.012;24.872;2022-12-18T10:19:29;21.20;;;19.00;;
8572;SDS011;4324;42.012;24.872;2022-12-18T10:22:08;22.87;;;19.30;;
8572;SDS011;4324;42.012;24.872;2022-12-18T10:24:44;22.90;;;19.83;;
8572;SDS011;4324;42.012;24.872;2022-12-18T10:27:23;24.93;;;20.10;;
8572;SDS011;4324;42.012;24.872;2022-12-18T10:29:52;26.60;;;22.23;;
8572;SDS011;4324;42.012;24.872;2022-12-18T10:32:20;26.03;;;20.77;;
8572;SDS011;4324;42.012;24.872;2022-12-18T10:34:50;24.37;;;19.93;;
8572;SDS011;4324;42.012;24.872;2022-12-18T10:37:20;25.67;;;20.93;;
8572;SDS011;4324;42.012;24.872;2022-12-18T10:40:04;25.33;;;22.20;;
8572;SDS011;4324;42.012;24.872;2022-12-18T10:42:36;27.23;;;23.20;;
8572;SDS011;4324;42.012;24.872;2022-12-18T10:45:05;23.33;;;18.20;;
8572;SDS011;4324;42.012;24.872;2022-12-18T10:47:40;21.50;;;16.23;;
8572;SDS011;4324;42.012;24.872;2022-12-18T10:50:17;18.47;;;16.33;;
8572;SDS011;4324;42.012;24.872;2022-12-18T10:52:53;20.17;;;16.93;;
8572;SDS011;4324;42.012;24.872;2022-12-18T10:55:22;24.23;;;19.67;;
8572;SDS011;4324;42.012;24.872;2022-12-18T10:57:52;24.40;;;19.33;;
8572;SDS011;4324;42.012;24.872;2022-12-18T11:00:23;24.63;;;20.13;;
8572;SDS011;4324;42.012;24.872;2022-12-18T11:02:52;19.20;;;16.10;;
8572;SDS011;4324;42.012;24.872;2022-12-18T11:05:28;18.30;;;14.80;;
8572;SDS011;4324;42.012;24.872;2022-12-18T11:07:56;13.77;;;11.63;;
8572;SDS011;4324;42.012;24.872;2022-12-18T11:10:26;10.47;;;9.37;;
8572;SDS011;4324;42.012;24.872;2022-12-18T11:13:09;8.23;;;7.23;;
8572;SDS011;4324;42.012;24.872;2022-12-18T11:15:39;8.47;;;7.60;;
8572;SDS011;4324;42.012;24.872;2022-12-18T11:18:14;8.10;;;7.17;;
8572;SDS011;4324;42.012;24.872;2022-12-18T11:20:49;9.03;;;7.47;;
8572;SDS011;4324;42.012;24.872;2022-12-18T11:23:18;9.63;;;8.00;;
8572;SDS011;4324;42.012;24.872;2022-12-18T11:25:50;10.20;;;8.13;;
8572;SDS011;4324;42.012;24.872;2022-12-18T11:28:28;11.67;;;8.50;;
8572;SDS011;4324;42.012;24.872;2022-12-18T11:31:15;13.77;;;10.03;;
8572;SDS011;4324;42.012;24.872;2022-12-18T11:33:46;14.63;;;10.93;;
8572;SDS011;4324;42.012;24.872;2022-12-18T11:36:16;13.57;;;10.33;;
8572;SDS011;4324;42.012;24.872;2022-12-18T11:38:45;17.90;;;12.97;;
8572;SDS011;4324;42.012;24.872;2022-12-18T11:41:15;11.63;;;10.07;;
8572;SDS011;4324;42.012;24.872;2022-12-18T11:43:50;16.90;;;11.70;;
8572;SDS011;4324;42.012;24.872;2022-12-18T11:46:23;13.97;;;11.47;;
8572;SDS011;4324;42.012;24.872;2022-12-18T11:48:58;12.17;;;10.00;;
8572;SDS011;4324;42.012;24.872;2022-12-18T11:51:32;12.27;;;9.63;;
8572;SDS011;4324;42.012;24.872;2022-12-18T11:54:07;11.77;;;9.47;;
8572;SDS011;4324;42.012;24.872;2022-12-18T11:56:41;13.43;;;10.20;;
8572;SDS011;4324;42.012;24.872;2022-12-18T11:59:15;13.43;;;10.50;;
8572;SDS011;4324;42.012;24.872;2022-12-18T12:01:53;14.10;;;10.87;;
8572;SDS011;4324;42.012;24.872;2022-12-18T12:04:33;16.47;;;12.70;;
8572;SDS011;4324;42.012;24.872;2022-12-18T12:07:13;12.37;;;10.97;;
8572;SDS011;4324;42.012;24.872;2022-12-18T12:09:50;18.37;;;13.83;;
8572;SDS011;4324;42.012;24.872;2022-12-18T12:12:31;16.93;;;11.20;;
8572;SDS011;4324;42.012;24.872;2022-12-18T12:15:17;12.70;;;11.23;;
8572;SDS011;4324;42.012;24.872;2022-12-18T12:17:53;14.90;;;12.30;;
8572;SDS011;4324;42.012;24.872;2022-12-18T12:20:27;12.17;;;10.10;;
8572;SDS011;4324;42.012;24.872;2022-12-18T12:23:05;15.80;;;12.03;;
8572;SDS011;4324;42.012;24.872;2022-12-18T12:25:44;14.17;;;11.80;;
8572;SDS011;4324;42.012;24.872;2022-12-18T12:28:19;13.20;;;10.90;;
8572;SDS011;4324;42.012;24.872;2022-12-18T12:31:01;13.50;;;11.17;;
8572;SDS011;4324;42.012;24.872;2022-12-18T12:33:40;13.60;;;11.73;;
8572;SDS011;4324;42.012;24.872;2022-12-18T12:36:20;13.00;;;11.43;;
8572;SDS011;4324;42.012;24.872;2022-12-18T12:38:57;13.17;;;10.67;;
8572;SDS011;4324;42.012;24.872;2022-12-18T12:41:32;12.87;;;10.97;;
8572;SDS011;4324;42.012;24.872;2022-12-18T12:44:19;13.27;;;11.80;;
8572;SDS011;4324;42.012;24.872;2022-12-18T12:46:51;13.63;;;11.50;;
8572;SDS011;4324;42.012;24.872;2022-12-18T12:49:21;13.73;;;11.73;;
8572;SDS011;4324;42.012;24.872;2022-12-18T12:51:53;13.73;;;11.37;;
8572;SDS011;4324;42.012;24.872;2022-12-18T12:54:25;14.47;;;11.90;;
8572;SDS011;4324;42.012;24.872;2022-12-18T12:56:54;12.53;;;11.13;;
8572;SDS011;4324;42.012;24.872;2022-12-18T12:59:30;14.27;;;11.23;;
8572;SDS011;4324;42.012;24.872;2022-12-18T13:02:09;13.30;;;10.67;;
8572;SDS011;4324;42.012;24.872;2022-12-18T13:04:45;11.30;;;10.03;;
8572;SDS011;4324;42.012;24.872;2022-12-18T13:07:17;14.00;;;12.07;;
8572;SDS011;4324;42.012;24.872;2022-12-18T13:12:51;20.57;;;15.73;;
8572;SDS011;4324;42.012;24.872;2022-12-18T13:15:25;16.77;;;14.47;;
8572;SDS011;4324;42.012;24.872;2022-12-18T13:20:48;17.63;;;14.83;;
8572;SDS011;4324;42.012;24.872;2022-12-18T13:23:27;21.30;;;15.17;;
8572;SDS011;4324;42.012;24.872;2022-12-18T13:25:57;18.03;;;15.27;;
8572;SDS011;4324;42.012;24.872;2022-12-18T13:34:18;19.00;;;15.40;;
8572;SDS011;4324;42.012;24.872;2022-12-18T13:36:47;16.90;;;14.40;;
8572;SDS011;4324;42.012;24.872;2022-12-18T13:48:16;24.33;;;18.97;;
8572;SDS011;4324;42.012;24.872;2022-12-18T13:50:49;24.13;;;18.73;;
8572;SDS011;4324;42.012;24.872;2022-12-18T13:53:21;20.93;;;18.30;;
8572;SDS011;4324;42.012;24.872;2022-12-18T13:55:52;20.97;;;18.73;;
8572;SDS011;4324;42.012;24.872;2022-12-18T13:58:20;22.97;;;18.37;;
8572;SDS011;4324;42.012;24.872;2022-12-18T14:00:47;22.17;;;18.23;;
8572;SDS011;4324;42.012;24.872;2022-12-18T14:03:19;21.30;;;17.57;;
8572;SDS011;4324;42.012;24.872;2022-12-18T14:05:52;21.30;;;17.17;;
8572;SDS011;4324;42.012;24.872;2022-12-18T14:08:21;21.00;;;17.13;;
8572;SDS011;4324;42.012;24.872;2022-12-18T14:10:51;23.50;;;19.00;;
8572;SDS011;4324;42.012;24.872;2022-12-18T14:13:23;29.40;;;22.87;;
8572;SDS011;4324;42.012;24.872;2022-12-18T14:15:53;28.40;;;21.40;;
8572;SDS011;4324;42.012;24.872;2022-12-18T14:18:20;29.47;;;21.63;;
8572;SDS011;4324;42.012;24.872;2022-12-18T14:20:50;25.70;;;19.70;;
8572;SDS011;4324;42.012;24.872;2022-12-18T14:23:25;24.10;;;19.93;;
8572;SDS011;4324;42.012;24.872;2022-12-18T14:25:53;22.90;;;18.20;;
8572;SDS011;4324;42.012;24.872;2022-12-18T14:28:20;24.37;;;19.67;;
8572;SDS011;4324;42.012;24.872;2022-12-18T14:30:48;24.43;;;19.70;;
8572;SDS011;4324;42.012;24.872;2022-12-18T14:33:16;24.37;;;19.73;;
8572;SDS011;4324;42.012;24.872;2022-12-18T14:35:53;22.80;;;18.67;;
8572;SDS011;4324;42.012;24.872;2022-12-18T14:38:23;25.53;;;19.37;;
8572;SDS011;4324;42.012;24.872;2022-12-18T14:40:55;26.77;;;21.40;;
8572;SDS011;4324;42.012;24.872;2022-12-18T14:43:24;28.83;;;22.37;;
8572;SDS011;4324;42.012;24.872;2022-12-18T14:45:51;29.17;;;21.30;;
8572;SDS011;4324;42.012;24.872;2022-12-18T14:48:19;28.50;;;23.80;;
8572;SDS011;4324;42.012;24.872;2022-12-18T14:50:55;33.50;;;27.03;;
8572;SDS011;4324;42.012;24.872;2022-12-18T14:53:29;31.60;;;26.23;;
8572;SDS011;4324;42.012;24.872;2022-12-18T14:56:00;31.83;;;25.27;;
8572;SDS011;4324;42.012;24.872;2022-12-18T14:58:28;30.10;;;23.73;;
8572;SDS011;4324;42.012;24.872;2022-12-18T15:00:55;30.30;;;23.43;;
8572;SDS011;4324;42.012;24.872;2022-12-18T15:03:22;26.27;;;21.83;;
8572;SDS011;4324;42.012;24.872;2022-12-18T15:05:49;25.20;;;21.40;;
8572;SDS011;4324;42.012;24.872;2022-12-18T15:08:34;26.63;;;21.77;;
8572;SDS011;4324;42.012;24.872;2022-12-18T15:11:02;24.33;;;18.90;;
8572;SDS011;4324;42.012;24.872;2022-12-18T15:13:29;23.70;;;18.33;;
8572;SDS011;4324;42.012;24.872;2022-12-18T15:15:57;23.67;;;15.07;;
8572;SDS011;4324;42.012;24.872;2022-12-18T15:18:29;19.57;;;13.40;;
8572;SDS011;4324;42.012;24.872;2022-12-18T15:20:59;16.43;;;12.40;;